createdAt,value
2022-11-22T00:00:35.343Z,4.97
2022-11-22T00:03:02.244Z,5.33
2022-11-22T00:05:29.399Z,5.70
2022-11-22T00:07:56.339Z,5.10
2022-11-22T00:10:23.296Z,5.92
2022-11-22T00:12:50.168Z,5.92
2022-11-22T00:15:17.089Z,5.19
2022-11-22T00:17:43.996Z,5.53
2022-11-22T00:20:11.998Z,5.53
2022-11-22T00:22:44.258Z,4.86
2022-11-22T00:25:11.699Z,5.95
2022-11-22T00:27:38.597Z,5.55
2022-11-22T00:30:06.671Z,5.92
2022-11-22T00:32:33.752Z,5.32
2022-11-22T00:35:00.648Z,5.53
2022-11-22T00:37:27.544Z,5.54
2022-11-22T00:39:54.459Z,5.69
2022-11-22T00:42:21.332Z,5.37
2022-11-22T00:44:48.224Z,5.97
2022-11-22T00:47:15.110Z,5.39
2022-11-22T00:49:41.974Z,5.81
2022-11-22T00:52:08.863Z,5.25
2022-11-22T00:54:35.946Z,5.80
2022-11-22T00:57:02.899Z,5.79
2022-11-22T00:59:30.078Z,6.02
2022-11-22T01:01:57.326Z,5.43
2022-11-22T01:04:24.207Z,5.62
2022-11-22T01:06:51.126Z,5.67
2022-11-22T01:09:20.685Z,6.07
2022-11-22T01:11:47.674Z,6.07
2022-11-22T01:14:15.399Z,5.09
2022-11-22T01:16:42.515Z,5.56
2022-11-22T01:19:09.409Z,5.48
2022-11-22T01:21:36.746Z,5.53
2022-11-22T01:24:03.755Z,5.92
2022-11-22T01:26:30.636Z,5.54
2022-11-22T01:28:57.510Z,5.56
2022-11-22T01:31:24.387Z,5.70
2022-11-22T01:33:51.686Z,5.52
2022-11-22T01:36:18.598Z,5.59
2022-11-22T01:38:45.472Z,6.11
2022-11-22T01:41:12.435Z,5.39
2022-11-22T01:43:39.393Z,5.51
2022-11-22T01:46:07.984Z,6.14
2022-11-22T01:48:53.725Z,5.41
2022-11-22T01:51:29.152Z,6.14
2022-11-22T01:53:57.145Z,5.59
2022-11-22T01:56:24.122Z,5.36
2022-11-22T01:58:56.910Z,6.18
2022-11-22T02:04:04.452Z,5.99
2022-11-22T02:07:06.131Z,6.18
2022-11-22T02:09:33.375Z,5.82
2022-11-22T02:12:01.517Z,5.95
2022-11-22T02:14:28.628Z,4.82
2022-11-22T02:16:55.784Z,5.57
2022-11-22T02:19:44.573Z,6.21
2022-11-22T02:22:49.519Z,6.02
2022-11-22T02:25:40.945Z,6.00
2022-11-22T02:28:09.884Z,5.66
2022-11-22T02:30:37.565Z,5.87
2022-11-22T02:33:05.169Z,5.83
2022-11-22T02:35:32.433Z,5.93
2022-11-22T02:38:12.620Z,5.57
2022-11-22T02:40:50.393Z,6.11
2022-11-22T02:43:42.650Z,6.10
2022-11-22T02:46:15.885Z,5.97
2022-11-22T02:48:44.105Z,5.59
2022-11-22T02:51:16.871Z,6.11
2022-11-22T02:53:44.779Z,6.01
2022-11-22T02:56:18.323Z,5.77
2022-11-22T02:58:45.680Z,6.05
2022-11-22T03:01:18.106Z,5.98
2022-11-22T03:03:45.352Z,6.39
2022-11-22T03:06:12.840Z,6.12
2022-11-22T03:08:39.788Z,5.42
2022-11-22T03:11:06.743Z,5.44
2022-11-22T03:13:33.706Z,6.12
2022-11-22T03:16:00.761Z,6.43
2022-11-22T03:18:27.722Z,6.42
2022-11-22T03:20:54.683Z,6.08
2022-11-22T03:23:21.625Z,6.22
2022-11-22T03:25:51.564Z,6.45
2022-11-22T03:28:21.529Z,5.91
2022-11-22T03:30:49.130Z,6.08
2022-11-22T03:33:16.102Z,6.25
2022-11-22T03:35:43.058Z,6.49
2022-11-22T03:38:10.087Z,6.28
2022-11-22T03:40:37.037Z,6.33
2022-11-22T03:43:04.275Z,6.11
2022-11-22T03:45:31.368Z,6.54
2022-11-22T03:47:58.360Z,6.16
2022-11-22T03:50:25.443Z,5.92
2022-11-22T03:52:52.431Z,6.52
2022-11-22T03:55:21.897Z,6.29
2022-11-22T03:57:49.121Z,6.50
2022-11-22T04:00:19.067Z,5.92
2022-11-22T04:02:46.141Z,6.05
2022-11-22T04:05:13.133Z,6.27
2022-11-22T04:07:40.141Z,6.45
2022-11-22T04:10:07.993Z,5.88
2022-11-22T04:12:35.167Z,6.24
2022-11-22T04:15:08.343Z,6.44
2022-11-22T04:17:41.164Z,5.84
2022-11-22T04:20:29.123Z,6.23
2022-11-22T04:23:19.132Z,6.37
2022-11-22T04:25:51.838Z,5.54
2022-11-22T04:28:35.337Z,6.32
2022-11-22T04:31:30.524Z,6.10
2022-11-22T04:33:57.472Z,5.50
2022-11-22T04:36:24.424Z,5.65
2022-11-22T04:38:52.295Z,4.80
2022-11-22T04:41:19.481Z,6.24
2022-11-22T04:44:05.548Z,5.87
2022-11-22T04:46:32.563Z,5.75
2022-11-22T04:48:59.513Z,5.76
2022-11-22T04:51:46.603Z,6.13
2022-11-22T04:54:13.657Z,4.89
2022-11-22T04:56:42.422Z,6.08
2022-11-22T04:59:09.484Z,5.66
2022-11-22T05:01:36.526Z,5.23
2022-11-22T05:04:03.549Z,5.56
2022-11-22T05:06:30.540Z,5.14
2022-11-22T05:08:57.607Z,5.70
2022-11-22T05:11:24.576Z,5.75
2022-11-22T05:13:51.522Z,4.64
2022-11-22T05:16:21.521Z,5.72
2022-11-22T05:18:59.348Z,5.95
2022-11-22T05:21:28.294Z,5.70
2022-11-22T05:23:55.903Z,5.32
2022-11-22T05:26:32.023Z,5.42
2022-11-22T05:29:02.595Z,5.48
2022-11-22T05:31:29.684Z,5.81
2022-11-22T05:33:57.648Z,5.80
2022-11-22T05:36:25.207Z,5.58
2022-11-22T05:38:52.426Z,5.56
2022-11-22T05:41:19.934Z,5.75
2022-11-22T05:43:47.636Z,5.74
2022-11-22T05:46:23.593Z,5.31
2022-11-22T05:48:51.877Z,5.12
2022-11-22T05:51:21.820Z,4.92
2022-11-22T05:53:49.243Z,5.66
2022-11-22T05:56:23.349Z,5.00
2022-11-22T05:58:51.250Z,4.85
2022-11-22T06:01:21.607Z,5.59
2022-11-22T06:03:49.561Z,4.95
2022-11-22T06:06:17.867Z,5.32
2022-11-22T06:08:48.190Z,5.39
2022-11-22T06:11:24.901Z,4.33
2022-11-22T06:14:03.419Z,4.86
2022-11-22T06:16:30.617Z,4.89
2022-11-22T06:18:57.644Z,4.79
2022-11-22T06:21:25.785Z,5.40
2022-11-22T06:23:55.113Z,5.40
2022-11-22T06:26:24.189Z,4.95
2022-11-22T06:28:51.980Z,5.35
2022-11-22T06:31:25.409Z,5.32
2022-11-22T06:33:55.720Z,4.91
2022-11-22T06:36:25.292Z,4.96
2022-11-22T06:38:52.436Z,4.64
2022-11-22T06:41:22.509Z,4.66
2022-11-22T06:43:50.428Z,3.89
2022-11-22T06:46:21.801Z,4.60
2022-11-22T06:48:49.427Z,5.24
2022-11-22T06:51:35.438Z,3.96
2022-11-22T06:54:02.425Z,5.02
2022-11-22T06:56:36.518Z,5.04
2022-11-22T06:59:04.575Z,3.90
2022-11-22T07:01:31.913Z,5.28
2022-11-22T07:03:59.412Z,2.02
2022-11-22T07:06:31.535Z,4.83
2022-11-22T07:08:59.965Z,5.17
2022-11-22T07:11:28.808Z,4.38
2022-11-22T07:14:01.727Z,4.75
2022-11-22T07:16:32.943Z,5.19
2022-11-22T07:19:03.443Z,3.87
2022-11-22T07:21:30.779Z,4.97
2022-11-22T07:24:00.137Z,5.42
2022-11-22T07:26:28.096Z,5.43
2022-11-22T07:28:55.095Z,4.10
2022-11-22T07:31:22.189Z,5.46
2022-11-22T07:33:49.529Z,5.47
2022-11-22T07:36:19.491Z,5.48
2022-11-22T07:38:49.604Z,4.42
2022-11-22T07:41:18.576Z,5.48
2022-11-22T07:43:47.220Z,4.34
2022-11-22T07:46:34.687Z,5.47
2022-11-22T07:49:01.924Z,4.99
2022-11-22T07:51:29.208Z,4.89
2022-11-22T07:53:56.682Z,5.49
2022-11-22T07:56:23.672Z,2.98
2022-11-22T07:58:50.736Z,5.48
2022-11-22T08:01:19.274Z,5.03
2022-11-22T08:03:46.644Z,3.08
2022-11-22T08:06:14.466Z,5.48
2022-11-22T08:08:42.096Z,4.51
2022-11-22T08:11:09.157Z,5.48
2022-11-22T08:13:36.560Z,5.26
2022-11-22T08:16:14.526Z,3.62
2022-11-22T08:18:42.376Z,4.87
2022-11-22T08:21:14.555Z,4.76
2022-11-22T08:23:42.805Z,5.50
2022-11-22T08:26:13.098Z,4.37
2022-11-22T08:28:41.342Z,3.88
2022-11-22T08:31:11.383Z,4.59
2022-11-22T08:33:45.090Z,1.93
2022-11-22T08:36:12.515Z,5.59
2022-11-22T08:38:39.499Z,4.99
2022-11-22T08:41:06.751Z,5.22
2022-11-22T08:43:33.803Z,5.45
2022-11-22T08:46:05.944Z,5.68
2022-11-22T08:48:34.148Z,4.38
2022-11-22T08:51:02.750Z,5.72
2022-11-22T08:53:32.550Z,4.95
2022-11-22T08:56:03.080Z,5.63
2022-11-22T08:58:31.069Z,3.62
2022-11-22T09:00:58.709Z,5.34
2022-11-22T09:03:28.667Z,5.32
2022-11-22T09:09:02.760Z,5.50
2022-11-22T09:11:35.966Z,5.68
2022-11-22T09:14:03.003Z,5.70
2022-11-22T09:16:29.994Z,5.46
2022-11-22T09:18:57.106Z,4.59
2022-11-22T09:21:24.073Z,5.98
2022-11-22T09:23:53.478Z,4.87
2022-11-22T09:26:22.149Z,6.02
2022-11-22T09:28:49.350Z,4.53
2022-11-22T09:31:19.549Z,5.00
2022-11-22T09:33:47.921Z,6.03
2022-11-22T09:36:20.375Z,6.05
2022-11-22T09:38:47.957Z,6.05
2022-11-22T09:41:39.692Z,6.07
2022-11-22T09:44:18.031Z,5.49
2022-11-22T09:46:58.452Z,6.06
2022-11-22T09:50:10.085Z,6.03
2022-11-22T09:52:47.589Z,5.97
2022-11-22T09:55:35.038Z,5.84
2022-11-22T09:58:27.164Z,5.29
2022-11-22T10:00:55.973Z,5.09
2022-11-22T10:03:25.188Z,6.09
2022-11-22T10:05:57.367Z,5.09
2022-11-22T10:08:49.146Z,6.14
2022-11-22T10:11:52.120Z,6.15
2022-11-22T10:14:30.588Z,5.79
2022-11-22T10:17:35.193Z,6.20
2022-11-22T10:20:09.368Z,6.07
2022-11-22T10:22:36.330Z,5.80
2022-11-22T10:25:16.991Z,3.58
2022-11-22T10:27:44.483Z,5.56
2022-11-22T10:30:15.953Z,5.90
2022-11-22T10:32:56.827Z,6.39
2022-11-22T10:35:42.093Z,6.44
2022-11-22T10:38:24.003Z,6.47
2022-11-22T10:41:01.256Z,5.54
2022-11-22T10:43:38.018Z,6.50
2022-11-22T10:46:16.878Z,6.17
2022-11-22T10:48:58.085Z,5.80
2022-11-22T10:51:33.603Z,6.60
2022-11-22T10:54:07.713Z,5.79
2022-11-22T10:56:50.248Z,6.50
2022-11-22T10:59:40.343Z,6.70
2022-11-22T11:02:35.705Z,6.04
2022-11-22T11:05:04.654Z,6.13
2022-11-22T11:07:31.678Z,6.29
2022-11-22T11:10:16.125Z,6.53
2022-11-22T11:12:50.966Z,6.75
2022-11-22T11:15:22.030Z,5.28
2022-11-22T11:17:56.134Z,6.34
2022-11-22T11:20:26.696Z,5.61
2022-11-22T11:25:43.335Z,6.78
2022-11-22T11:28:19.000Z,6.79
2022-11-22T11:30:50.308Z,6.80
2022-11-22T11:33:21.424Z,6.82
2022-11-22T11:35:49.331Z,6.16
2022-11-22T11:38:34.208Z,6.00
2022-11-22T11:41:24.244Z,6.87
2022-11-22T11:43:52.961Z,4.46
2022-11-22T11:46:24.763Z,6.38
2022-11-22T11:48:53.602Z,6.88
2022-11-22T11:51:38.381Z,6.00
2022-11-22T11:54:16.248Z,6.49
2022-11-22T11:56:56.062Z,6.93
2022-11-22T11:59:30.367Z,6.97
2022-11-22T12:02:43.467Z,7.04
2022-11-22T12:05:13.453Z,7.10
2022-11-22T12:07:44.860Z,6.34
2022-11-22T12:10:52.449Z,7.20
2022-11-22T12:14:19.504Z,7.24
2022-11-22T12:16:44.873Z,5.14
2022-11-22T12:19:41.565Z,7.29
2022-11-22T12:22:47.789Z,7.32
2022-11-22T12:25:33.396Z,7.02
2022-11-22T12:28:23.383Z,7.14
2022-11-22T12:31:39.857Z,7.38
2022-11-22T12:34:22.367Z,6.80
2022-11-22T12:36:57.204Z,7.41
2022-11-22T12:39:28.280Z,7.21
2022-11-22T12:42:23.258Z,7.41
2022-11-22T12:45:12.369Z,6.66
2022-11-22T12:47:42.291Z,7.06
2022-11-22T12:50:36.668Z,7.43
2022-11-22T12:53:28.061Z,6.90
2022-11-22T12:56:32.749Z,7.21
2022-11-22T12:59:25.382Z,6.53
2022-11-22T13:02:31.957Z,7.36
2022-11-22T13:05:04.174Z,7.34
2022-11-22T13:07:36.831Z,7.34
2022-11-22T13:10:14.555Z,7.33
2022-11-22T13:12:42.506Z,7.20
2022-11-22T13:15:13.714Z,7.01
2022-11-22T13:17:41.043Z,7.00
2022-11-22T13:20:39.507Z,6.78
2022-11-22T13:23:45.189Z,7.35
2022-11-22T13:26:42.910Z,6.81
2022-11-22T13:29:25.175Z,5.69
2022-11-22T13:32:01.254Z,7.41
2022-11-22T13:34:29.006Z,7.03
2022-11-22T13:37:11.513Z,6.87
2022-11-22T13:39:46.024Z,6.84
2022-11-22T13:42:28.755Z,6.47
2022-11-22T13:44:55.617Z,7.50
2022-11-22T13:47:42.344Z,6.67
2022-11-22T13:50:40.589Z,7.49
2022-11-22T13:53:19.676Z,7.51
2022-11-22T13:55:47.764Z,7.53
2022-11-22T13:58:26.960Z,7.53
2022-11-22T14:00:56.005Z,6.99
2022-11-22T14:03:24.430Z,7.42
2022-11-22T14:05:55.124Z,7.49
2022-11-22T14:08:35.421Z,5.58
2022-11-22T14:11:40.945Z,7.18
2022-11-22T14:14:40.740Z,7.58
2022-11-22T14:17:41.698Z,7.59
2022-11-22T14:20:50.103Z,7.26
2022-11-22T14:24:00.336Z,7.62
2022-11-22T14:27:12.126Z,7.63
2022-11-22T14:30:08.133Z,7.63
2022-11-22T14:32:50.088Z,6.86
2022-11-22T14:35:21.495Z,7.64
2022-11-22T14:38:05.453Z,7.59
2022-11-22T14:40:40.823Z,7.29
2022-11-22T14:43:34.808Z,7.61
2022-11-22T14:46:45.146Z,7.41
2022-11-22T14:49:57.741Z,7.53
2022-11-22T14:52:32.096Z,6.69
2022-11-22T14:55:08.750Z,7.21
2022-11-22T14:57:37.558Z,7.60
2022-11-22T15:00:24.124Z,6.38
2022-11-22T15:03:18.966Z,7.19
2022-11-22T15:09:13.831Z,7.63
2022-11-22T15:09:53.525Z,7.63
2022-11-22T15:13:06.030Z,7.61
2022-11-22T15:59:44.520Z,6.64
2022-11-22T16:02:23.188Z,4.84
2022-11-22T16:06:09.146Z,6.64
2022-11-22T16:07:49.444Z,7.20
2022-11-22T16:10:22.420Z,7.55
2022-11-22T16:12:51.166Z,7.54
2022-11-22T16:15:37.291Z,6.74
2022-11-22T16:18:14.595Z,7.55
2022-11-22T16:20:49.936Z,7.54
2022-11-22T16:23:23.925Z,6.68
2022-11-22T16:25:55.494Z,6.23
2022-11-22T16:28:33.526Z,7.03
2022-11-22T16:31:26.828Z,7.22
2022-11-22T16:33:55.336Z,7.13
2022-11-22T16:36:24.684Z,6.97
2022-11-22T16:38:51.971Z,7.56
2022-11-22T16:41:25.299Z,6.87
2022-11-22T16:44:06.699Z,6.81
2022-11-22T16:46:33.726Z,7.36
2022-11-22T16:49:00.713Z,7.22
2022-11-22T16:51:30.083Z,7.19
2022-11-22T16:54:06.604Z,7.45
2022-11-22T16:56:33.854Z,6.39
2022-11-22T16:59:00.867Z,6.85
2022-11-22T17:01:33.181Z,7.58
2022-11-22T17:04:02.860Z,7.24
2022-11-22T17:06:31.498Z,7.06
2022-11-22T17:09:00.017Z,6.99
2022-11-22T17:11:30.494Z,7.41
2022-11-22T17:13:58.959Z,5.90
2022-11-22T17:16:25.919Z,6.31
2022-11-22T17:18:53.366Z,6.48
2022-11-22T17:21:37.379Z,7.21
2022-11-22T17:24:21.310Z,7.01
2022-11-22T17:26:48.817Z,6.30
2022-11-22T17:29:35.220Z,7.02
2022-11-22T17:32:02.817Z,5.00
2022-11-22T17:34:30.168Z,7.58
2022-11-22T17:36:57.291Z,6.09
2022-11-22T17:39:24.432Z,7.04
2022-11-22T17:41:51.440Z,7.20
2022-11-22T17:44:19.165Z,7.58
2022-11-22T17:46:47.635Z,6.34
2022-11-22T17:49:16.277Z,7.18
2022-11-22T17:51:43.936Z,7.35
2022-11-22T17:54:11.030Z,6.82
2022-11-22T17:56:41.148Z,7.41
2022-11-22T17:59:08.096Z,6.66
2022-11-22T18:01:36.939Z,7.17
2022-11-22T18:04:03.979Z,7.46
2022-11-22T18:06:31.492Z,7.31
2022-11-22T18:08:59.010Z,7.64
2022-11-22T18:11:25.983Z,7.25
2022-11-22T18:13:52.971Z,7.30
2022-11-22T18:16:19.995Z,7.20
2022-11-22T18:19:03.080Z,7.63
2022-11-22T18:21:32.250Z,7.31
2022-11-22T18:23:59.982Z,6.77
2022-11-22T18:26:42.830Z,7.40
2022-11-22T18:29:41.631Z,6.58
2022-11-22T18:32:00.332Z,7.42
2022-11-22T18:34:27.926Z,7.00
2022-11-22T18:37:00.360Z,7.55
2022-11-22T18:39:35.237Z,6.83
2022-11-22T18:42:04.442Z,7.16
2022-11-22T18:44:31.544Z,7.56
2022-11-22T18:46:58.556Z,7.56
2022-11-22T18:49:25.613Z,7.16
2022-11-22T18:51:52.571Z,7.41
2022-11-22T18:54:21.817Z,7.30
2022-11-22T18:56:50.355Z,7.42
2022-11-22T18:59:17.890Z,7.65
2022-11-22T19:01:44.878Z,7.03
2022-11-22T19:04:15.827Z,7.62
2022-11-22T19:06:44.109Z,6.90
2022-11-22T19:09:11.706Z,7.45
2022-11-22T19:11:38.693Z,7.29
2022-11-22T19:14:05.765Z,7.27
2022-11-22T19:16:32.789Z,7.48
2022-11-22T19:19:00.002Z,7.20
2022-11-22T19:21:28.782Z,7.18
2022-11-22T19:23:56.800Z,6.62
2022-11-22T19:26:26.269Z,7.05
2022-11-22T19:28:57.726Z,7.31
2022-11-22T19:31:29.477Z,7.52
2022-11-22T19:33:57.642Z,6.87
2022-11-22T19:36:32.755Z,7.32
2022-11-22T19:39:01.285Z,7.15
2022-11-22T19:41:28.351Z,7.21
2022-11-22T19:43:56.416Z,7.28
2022-11-22T19:46:24.421Z,7.39
2022-11-22T19:48:56.827Z,7.38
2022-11-22T19:51:25.333Z,7.59
2022-11-22T19:54:00.214Z,7.03
2022-11-22T19:56:30.643Z,7.56
2022-11-22T19:58:59.447Z,7.47
2022-11-22T20:01:30.487Z,6.92
2022-11-22T20:04:04.781Z,7.65
2022-11-22T20:06:32.963Z,7.52
2022-11-22T20:09:09.805Z,7.41
2022-11-22T20:11:41.929Z,7.57
2022-11-22T20:14:09.645Z,7.68
2022-11-22T20:16:44.167Z,7.35
2022-11-22T20:19:12.517Z,7.89
2022-11-22T20:21:42.922Z,6.91
2022-11-22T20:24:10.285Z,7.68
2022-11-22T20:26:37.527Z,7.74
2022-11-22T20:29:07.141Z,7.92
2022-11-22T20:31:36.792Z,7.75
2022-11-22T20:34:03.899Z,7.62
2022-11-22T20:36:33.252Z,7.62
2022-11-22T20:39:02.900Z,7.51
2022-11-22T20:41:33.793Z,7.54
2022-11-22T20:44:00.907Z,7.99
2022-11-22T20:46:29.803Z,7.65
2022-11-22T20:48:58.027Z,8.00
2022-11-22T20:51:28.827Z,8.01
2022-11-22T20:53:56.421Z,7.87
2022-11-22T20:56:23.655Z,7.67
2022-11-22T20:58:50.603Z,5.99
2022-11-22T21:01:19.135Z,6.79
2022-11-22T21:03:48.974Z,4.72
2022-11-22T21:06:19.810Z,7.80
2022-11-22T21:08:49.745Z,7.84
2022-11-22T21:11:24.495Z,7.60
2022-11-22T21:13:51.949Z,7.68
2022-11-22T21:16:27.428Z,7.60
2022-11-22T21:18:56.281Z,6.48
2022-11-22T21:21:24.408Z,7.65
2022-11-22T21:23:53.301Z,8.03
2022-11-22T21:26:20.528Z,7.26
2022-11-22T21:28:49.467Z,7.59
2022-11-22T21:31:17.060Z,7.58
2022-11-22T21:33:45.929Z,7.38
2022-11-22T21:36:13.066Z,7.63
2022-11-22T21:38:39.950Z,7.47
2022-11-22T21:41:39.210Z,7.45
2022-11-22T21:43:57.035Z,7.73
2022-11-22T21:46:25.320Z,8.08
2022-11-22T21:48:52.311Z,7.74
2022-11-22T21:51:19.437Z,8.12
2022-11-22T21:53:49.349Z,7.82
2022-11-22T21:56:19.000Z,7.95
2022-11-22T21:58:46.001Z,7.94
2022-11-22T22:01:14.393Z,7.82
2022-11-22T22:03:42.048Z,7.27
2022-11-22T22:06:09.057Z,7.68
2022-11-22T22:08:36.460Z,7.61
2022-11-22T22:11:05.371Z,7.86
2022-11-22T22:13:32.606Z,8.05
2022-11-22T22:16:01.224Z,8.22
2022-11-22T22:18:32.448Z,7.66
2022-11-22T22:21:01.001Z,7.43
2022-11-22T22:23:27.983Z,7.67
2022-11-22T22:26:02.249Z,7.71
2022-11-22T22:28:30.307Z,7.89
2022-11-22T22:31:16.909Z,7.91
2022-11-22T22:33:45.844Z,7.79
2022-11-22T22:36:13.050Z,7.94
2022-11-22T22:38:40.882Z,8.12
2022-11-22T22:41:09.952Z,8.32
2022-11-22T22:43:38.609Z,8.11
2022-11-22T22:46:14.332Z,8.17
2022-11-22T22:48:42.288Z,7.86
2022-11-22T22:51:14.608Z,8.03
2022-11-22T22:53:42.475Z,8.36
2022-11-22T22:56:10.197Z,8.18
2022-11-22T22:58:37.301Z,8.03
2022-11-22T23:01:25.612Z,7.99
2022-11-22T23:03:54.201Z,7.87
2022-11-22T23:06:22.381Z,8.24
2022-11-22T23:08:50.412Z,8.03
2022-11-22T23:11:19.258Z,8.40
2022-11-22T23:13:46.160Z,8.20
2022-11-22T23:16:14.186Z,8.42
2022-11-22T23:18:42.760Z,8.43
2022-11-22T23:21:12.386Z,8.26
2022-11-22T23:23:39.266Z,7.97
2022-11-22T23:26:08.258Z,8.45
2022-11-22T23:28:35.257Z,8.12
2022-11-22T23:31:06.942Z,8.09
2022-11-22T23:33:34.366Z,7.62
2022-11-22T23:36:05.160Z,7.96
2022-11-22T23:38:32.224Z,8.48
2022-11-22T23:41:00.114Z,7.62
2022-11-22T23:43:27.336Z,8.49
2022-11-22T23:45:54.243Z,7.96
2022-11-22T23:48:21.257Z,8.51
2022-11-22T23:50:48.485Z,8.33
2022-11-22T23:53:15.609Z,7.60
2022-11-22T23:55:42.545Z,7.97
2022-11-22T23:58:09.573Z,7.74
